createdAt,value
2022-11-08T00:00:04.270Z,21.91
2022-11-08T00:01:08.538Z,21.91
2022-11-08T00:02:13.098Z,21.92
2022-11-08T00:03:17.812Z,21.89
2022-11-08T00:04:22.297Z,21.87
2022-11-08T00:05:26.549Z,21.87
2022-11-08T00:06:30.869Z,21.87
2022-11-08T00:07:35.117Z,21.86
2022-11-08T00:08:39.370Z,21.87
2022-11-08T00:09:43.630Z,21.88
2022-11-08T00:10:47.895Z,21.9
2022-11-08T00:11:52.145Z,21.9
2022-11-08T00:12:56.394Z,21.93
2022-11-08T00:14:00.774Z,21.93
2022-11-08T00:15:05.029Z,21.94
2022-11-08T00:16:09.303Z,21.93
2022-11-08T00:17:13.542Z,21.91
2022-11-08T00:18:18.073Z,21.88
2022-11-08T00:19:23.066Z,21.89
2022-11-08T00:20:27.334Z,21.91
2022-11-08T00:21:31.549Z,21.88
2022-11-08T00:22:35.785Z,21.9
2022-11-08T00:23:40.015Z,21.9
2022-11-08T00:24:44.254Z,21.9
2022-11-08T00:25:48.519Z,21.91
2022-11-08T00:26:52.825Z,21.9
2022-11-08T00:27:57.046Z,21.87
2022-11-08T00:29:01.270Z,21.87
2022-11-08T00:30:05.524Z,21.88
2022-11-08T00:31:09.750Z,21.86
2022-11-08T00:32:13.959Z,21.89
2022-11-08T00:33:18.202Z,21.88
2022-11-08T00:34:22.455Z,21.91
2022-11-08T00:35:26.674Z,21.91
2022-11-08T00:36:30.913Z,21.9
2022-11-08T00:37:35.188Z,21.9
2022-11-08T00:38:39.407Z,21.9
2022-11-08T00:39:43.638Z,21.88
2022-11-08T00:40:47.893Z,21.86
2022-11-08T00:41:52.122Z,21.84
2022-11-08T00:42:56.398Z,21.87
2022-11-08T00:44:00.631Z,21.88
2022-11-08T00:45:04.868Z,21.87
2022-11-08T00:46:09.116Z,21.87
2022-11-08T00:47:13.386Z,21.85
2022-11-08T00:48:19.041Z,21.84
2022-11-08T00:49:24.069Z,21.84
2022-11-08T00:50:28.343Z,21.84
2022-11-08T00:51:35.147Z,21.82
2022-11-08T00:52:39.398Z,21.85
2022-11-08T00:53:43.625Z,21.86
2022-11-08T00:54:47.887Z,21.86
2022-11-08T00:55:52.140Z,21.84
2022-11-08T00:56:56.409Z,21.82
2022-11-08T00:58:00.862Z,21.87
2022-11-08T00:59:05.175Z,21.86
2022-11-08T01:00:09.537Z,21.88
2022-11-08T01:01:13.918Z,21.86
2022-11-08T01:02:18.485Z,21.84
2022-11-08T01:03:22.972Z,21.85
2022-11-08T01:04:27.245Z,21.87
2022-11-08T01:05:31.519Z,21.86
2022-11-08T01:06:35.756Z,21.87
2022-11-08T01:07:39.995Z,21.9
2022-11-08T01:08:44.235Z,21.91
2022-11-08T01:09:48.521Z,21.87
2022-11-08T01:10:52.752Z,21.89
2022-11-08T01:11:56.959Z,21.89
2022-11-08T01:13:01.232Z,21.9
2022-11-08T01:14:05.492Z,21.88
2022-11-08T01:15:09.795Z,21.86
2022-11-08T01:16:14.210Z,21.83
2022-11-08T01:17:18.510Z,21.8
2022-11-08T01:18:22.771Z,21.81
2022-11-08T01:19:27.017Z,21.8
2022-11-08T01:20:31.299Z,21.8
2022-11-08T01:21:35.528Z,21.8
2022-11-08T01:22:39.795Z,21.81
2022-11-08T01:23:44.012Z,21.79
2022-11-08T01:24:48.250Z,21.8
2022-11-08T01:25:52.518Z,21.78
2022-11-08T01:26:56.771Z,21.81
2022-11-08T01:28:01.011Z,21.79
2022-11-08T01:29:05.241Z,21.78
2022-11-08T01:30:09.472Z,21.77
2022-11-08T01:31:13.693Z,21.8
2022-11-08T01:32:17.966Z,21.81
2022-11-08T01:33:22.195Z,21.84
2022-11-08T01:34:26.447Z,21.84
2022-11-08T01:35:30.688Z,21.85
2022-11-08T01:36:34.963Z,21.84
2022-11-08T01:37:39.216Z,21.85
2022-11-08T01:38:43.500Z,21.84
2022-11-08T01:39:47.729Z,21.85
2022-11-08T01:40:51.962Z,21.82
2022-11-08T01:41:56.206Z,21.82
2022-11-08T01:43:00.452Z,21.82
2022-11-08T01:44:04.678Z,21.83
2022-11-08T01:45:08.939Z,21.83
2022-11-08T01:46:13.180Z,21.82
2022-11-08T01:47:17.836Z,21.81
2022-11-08T01:48:22.093Z,21.84
2022-11-08T01:49:26.358Z,21.82
2022-11-08T01:50:30.571Z,21.81
2022-11-08T01:51:34.810Z,21.83
2022-11-08T01:52:39.117Z,21.82
2022-11-08T01:53:44.428Z,21.82
2022-11-08T01:54:48.673Z,21.8
2022-11-08T01:55:53.324Z,21.77
2022-11-08T01:56:57.561Z,21.77
2022-11-08T01:58:01.847Z,21.76
2022-11-08T01:59:06.084Z,21.73
2022-11-08T02:00:10.310Z,21.71
2022-11-08T02:01:14.597Z,21.7
2022-11-08T02:02:19.025Z,21.69
2022-11-08T02:03:23.634Z,21.69
2022-11-08T02:04:27.909Z,21.67
2022-11-08T02:05:32.140Z,21.66
2022-11-08T02:06:36.371Z,21.65
2022-11-08T02:07:40.606Z,21.66
2022-11-08T02:08:44.880Z,21.65
2022-11-08T02:09:49.135Z,21.64
2022-11-08T02:10:53.350Z,21.64
2022-11-08T02:11:57.597Z,21.63
2022-11-08T02:13:04.917Z,21.63
2022-11-08T02:14:17.250Z,21.65
2022-11-08T02:15:21.519Z,21.67
2022-11-08T02:16:25.764Z,21.66
2022-11-08T02:17:30.035Z,21.63
2022-11-08T02:18:34.256Z,21.65
2022-11-08T02:19:38.470Z,21.63
2022-11-08T02:20:42.682Z,21.63
2022-11-08T02:21:46.976Z,21.62
2022-11-08T02:22:51.203Z,21.63
2022-11-08T02:23:55.462Z,21.6
2022-11-08T02:24:59.722Z,21.62
2022-11-08T02:26:03.976Z,21.65
2022-11-08T02:27:08.196Z,21.65
2022-11-08T02:28:12.519Z,21.7
2022-11-08T02:29:16.914Z,21.72
2022-11-08T02:30:21.158Z,21.7
2022-11-08T02:31:25.398Z,21.67
2022-11-08T02:32:29.664Z,21.65
2022-11-08T02:33:33.924Z,21.66
2022-11-08T02:34:38.146Z,21.64
2022-11-08T02:35:42.377Z,21.65
2022-11-08T02:36:46.616Z,21.62
2022-11-08T02:37:51.901Z,21.61
2022-11-08T02:38:56.125Z,21.6
2022-11-08T02:40:00.388Z,21.58
2022-11-08T02:41:04.650Z,21.58
2022-11-08T02:42:08.895Z,21.57
2022-11-08T02:43:13.138Z,21.59
2022-11-08T02:44:17.425Z,21.58
2022-11-08T02:45:21.669Z,21.59
2022-11-08T02:46:25.936Z,21.61
2022-11-08T02:47:30.155Z,21.59
2022-11-08T02:48:34.388Z,21.59
2022-11-08T02:49:38.652Z,21.6
2022-11-08T02:50:42.887Z,21.57
2022-11-08T02:51:47.115Z,21.58
2022-11-08T02:52:51.361Z,21.57
2022-11-08T02:53:55.566Z,21.57
2022-11-08T02:54:59.820Z,21.58
2022-11-08T02:56:04.083Z,21.59
2022-11-08T02:57:08.338Z,21.56
2022-11-08T02:58:12.537Z,21.56
2022-11-08T02:59:16.999Z,21.55
2022-11-08T03:00:21.258Z,21.56
2022-11-08T03:01:25.627Z,21.58
2022-11-08T03:02:30.309Z,21.56
2022-11-08T03:03:34.868Z,21.54
2022-11-08T03:04:39.164Z,21.56
2022-11-08T03:05:43.425Z,21.55
2022-11-08T03:06:47.727Z,21.55
2022-11-08T03:07:51.990Z,21.55
2022-11-08T03:08:56.270Z,21.55
2022-11-08T03:10:00.546Z,21.54
2022-11-08T03:11:04.807Z,21.53
2022-11-08T03:12:09.049Z,21.53
2022-11-08T03:13:13.292Z,21.52
2022-11-08T03:14:17.555Z,21.52
2022-11-08T03:15:21.829Z,21.55
2022-11-08T03:16:26.069Z,21.54
2022-11-08T03:17:30.344Z,21.53
2022-11-08T03:18:34.563Z,21.52
2022-11-08T03:19:38.820Z,21.54
2022-11-08T03:20:43.027Z,21.56
2022-11-08T03:21:47.301Z,21.59
2022-11-08T03:22:51.577Z,21.59
2022-11-08T03:23:55.895Z,21.55
2022-11-08T03:25:00.131Z,21.58
2022-11-08T03:26:04.398Z,21.57
2022-11-08T03:27:08.637Z,21.58
2022-11-08T03:28:12.855Z,21.58
2022-11-08T03:29:21.452Z,21.61
2022-11-08T03:30:25.707Z,21.62
2022-11-08T03:31:29.952Z,21.56
2022-11-08T03:32:34.175Z,21.55
2022-11-08T03:33:38.453Z,21.58
2022-11-08T03:34:42.740Z,21.57
2022-11-08T03:35:46.955Z,21.58
2022-11-08T03:36:51.211Z,21.53
2022-11-08T03:37:55.477Z,21.55
2022-11-08T03:38:59.746Z,21.51
2022-11-08T03:40:04.019Z,21.52
2022-11-08T03:41:08.247Z,21.5
2022-11-08T03:42:12.534Z,21.56
2022-11-08T03:43:16.788Z,21.58
2022-11-08T03:44:21.074Z,21.56
2022-11-08T03:45:25.380Z,21.56
2022-11-08T03:46:29.627Z,21.58
2022-11-08T03:47:33.873Z,21.57
2022-11-08T03:48:38.129Z,21.57
2022-11-08T03:49:42.377Z,21.57
2022-11-08T03:50:46.593Z,21.58
2022-11-08T03:51:50.878Z,21.55
2022-11-08T03:52:55.104Z,21.52
2022-11-08T03:53:59.391Z,21.53
2022-11-08T03:55:03.675Z,21.53
2022-11-08T03:56:07.917Z,21.55
2022-11-08T03:57:12.196Z,21.56
2022-11-08T03:58:17.710Z,21.58
2022-11-08T03:59:23.203Z,21.59
2022-11-08T04:00:27.475Z,21.59
2022-11-08T04:01:31.823Z,21.57
2022-11-08T04:02:36.538Z,21.55
2022-11-08T04:03:41.053Z,21.53
2022-11-08T04:04:45.335Z,21.53
2022-11-08T04:05:49.560Z,21.55
2022-11-08T04:06:53.834Z,21.55
2022-11-08T04:07:58.069Z,21.57
2022-11-08T04:09:02.331Z,21.55
2022-11-08T04:10:06.610Z,21.54
2022-11-08T04:11:10.873Z,21.53
2022-11-08T04:12:15.159Z,21.54
2022-11-08T04:13:19.451Z,21.56
2022-11-08T04:14:23.658Z,21.53
2022-11-08T04:15:27.897Z,21.55
2022-11-08T04:16:32.155Z,21.52
2022-11-08T04:17:36.662Z,21.53
2022-11-08T04:18:40.901Z,21.52
2022-11-08T04:19:45.123Z,21.54
2022-11-08T04:20:49.376Z,21.51
2022-11-08T04:21:53.644Z,21.51
2022-11-08T04:22:57.854Z,21.53
2022-11-08T04:24:04.458Z,21.51
2022-11-08T04:25:08.675Z,21.54
2022-11-08T04:26:12.919Z,21.56
2022-11-08T04:27:17.143Z,21.56
2022-11-08T04:28:21.426Z,21.53
2022-11-08T04:29:25.652Z,21.53
2022-11-08T04:30:29.882Z,21.54
2022-11-08T04:31:34.144Z,21.56
2022-11-08T04:32:38.376Z,21.54
2022-11-08T04:33:42.633Z,21.55
2022-11-08T04:34:46.885Z,21.59
2022-11-08T04:35:51.173Z,21.57
2022-11-08T04:36:55.401Z,21.59
2022-11-08T04:37:59.709Z,21.58
2022-11-08T04:39:04.167Z,21.54
2022-11-08T04:40:08.408Z,21.54
2022-11-08T04:41:12.702Z,21.54
2022-11-08T04:42:16.967Z,21.55
2022-11-08T04:43:21.212Z,21.55
2022-11-08T04:44:25.472Z,21.54
2022-11-08T04:45:29.717Z,21.54
2022-11-08T04:46:33.969Z,21.58
2022-11-08T04:47:41.160Z,21.63
2022-11-08T04:48:51.569Z,21.6
2022-11-08T04:49:55.851Z,21.58
2022-11-08T04:51:00.077Z,21.57
2022-11-08T04:52:04.300Z,21.58
2022-11-08T04:53:08.579Z,21.56
2022-11-08T04:54:12.824Z,21.58
2022-11-08T04:55:17.058Z,21.58
2022-11-08T04:56:21.305Z,21.55
2022-11-08T04:57:25.549Z,21.58
2022-11-08T04:58:29.812Z,21.57
2022-11-08T04:59:37.033Z,21.57
2022-11-08T05:00:41.305Z,21.55
2022-11-08T05:01:45.783Z,21.55
2022-11-08T05:02:50.410Z,21.55
2022-11-08T05:03:54.947Z,21.56
2022-11-08T05:04:59.160Z,21.56
2022-11-08T05:06:03.448Z,21.57
2022-11-08T05:07:07.703Z,21.63
2022-11-08T05:08:11.966Z,21.69
2022-11-08T05:09:16.216Z,21.75
2022-11-08T05:10:20.440Z,21.77
2022-11-08T05:11:24.731Z,21.77
2022-11-08T05:12:29.016Z,21.77
2022-11-08T05:13:33.257Z,21.79
2022-11-08T05:14:37.500Z,21.82
2022-11-08T05:15:41.813Z,21.84
2022-11-08T05:16:46.073Z,21.87
2022-11-08T05:17:50.336Z,21.92
2022-11-08T05:18:54.593Z,21.96
2022-11-08T05:19:58.835Z,22
2022-11-08T05:21:03.077Z,22.03
2022-11-08T05:22:07.347Z,22.05
2022-11-08T05:23:11.607Z,22.07
2022-11-08T05:24:15.860Z,22.07
2022-11-08T05:25:20.334Z,22.1
2022-11-08T05:26:24.616Z,22.09
2022-11-08T05:27:28.837Z,22.1
2022-11-08T05:28:33.101Z,22.1
2022-11-08T05:29:41.191Z,22.11
2022-11-08T05:30:46.323Z,22.11
2022-11-08T05:31:50.561Z,22.1
2022-11-08T05:32:54.861Z,22.08
2022-11-08T05:33:59.149Z,22.07
2022-11-08T05:35:03.453Z,22.06
2022-11-08T05:36:07.695Z,22.04
2022-11-08T05:37:11.982Z,22.03
2022-11-08T05:38:16.541Z,22.01
2022-11-08T05:39:22.519Z,22
2022-11-08T05:40:34.096Z,22
2022-11-08T05:41:38.336Z,21.99
2022-11-08T05:42:42.612Z,21.97
2022-11-08T05:43:49.828Z,21.94
2022-11-08T05:44:54.121Z,21.94
2022-11-08T05:45:58.500Z,21.93
2022-11-08T05:47:02.738Z,21.92
2022-11-08T05:48:06.976Z,21.9
2022-11-08T05:49:11.176Z,21.89
2022-11-08T05:50:18.333Z,21.88
2022-11-08T05:51:23.497Z,21.86
2022-11-08T05:52:27.738Z,21.87
2022-11-08T05:53:31.968Z,21.83
2022-11-08T05:54:36.193Z,21.84
2022-11-08T05:55:40.445Z,21.82
2022-11-08T05:56:44.692Z,21.79
2022-11-08T05:57:48.959Z,21.77
2022-11-08T05:58:53.788Z,21.76
2022-11-08T05:59:58.016Z,21.73
2022-11-08T06:01:02.291Z,21.74
2022-11-08T06:02:06.642Z,21.74
2022-11-08T06:03:11.481Z,21.73
2022-11-08T06:04:16.193Z,21.7
2022-11-08T06:05:20.512Z,21.7
2022-11-08T06:06:24.816Z,21.69
2022-11-08T06:07:29.071Z,21.68
2022-11-08T06:08:33.318Z,21.67
2022-11-08T06:09:37.586Z,21.7
2022-11-08T06:10:41.819Z,21.7
2022-11-08T06:11:46.104Z,21.7
2022-11-08T06:12:50.378Z,21.7
2022-11-08T06:13:54.837Z,21.72
2022-11-08T06:14:59.102Z,21.72
2022-11-08T06:16:03.361Z,21.71
2022-11-08T06:17:07.615Z,21.72
2022-11-08T06:18:11.873Z,21.71
2022-11-08T06:19:16.119Z,21.69
2022-11-08T06:20:20.463Z,21.69
2022-11-08T06:21:25.468Z,21.69
2022-11-08T06:22:29.740Z,21.7
2022-11-08T06:23:34.038Z,21.66
2022-11-08T06:24:38.340Z,21.66
2022-11-08T06:25:46.501Z,21.68
2022-11-08T06:26:51.604Z,21.64
2022-11-08T06:27:55.871Z,21.63
2022-11-08T06:29:00.139Z,21.58
2022-11-08T06:30:04.389Z,21.55
2022-11-08T06:31:08.694Z,21.5
2022-11-08T06:32:12.968Z,21.48
2022-11-08T06:33:17.396Z,21.45
2022-11-08T06:34:23.009Z,21.43
2022-11-08T06:35:27.384Z,21.42
2022-11-08T06:36:31.811Z,21.4
2022-11-08T06:37:36.083Z,21.41
2022-11-08T06:38:40.341Z,21.41
2022-11-08T06:39:44.593Z,21.39
2022-11-08T06:40:48.834Z,21.39
2022-11-08T06:41:53.663Z,21.38
2022-11-08T06:42:57.937Z,21.41
2022-11-08T06:44:02.229Z,21.4
2022-11-08T06:45:06.491Z,21.38
2022-11-08T06:46:10.791Z,21.39
2022-11-08T06:47:15.377Z,21.39
2022-11-08T06:48:19.632Z,21.41
2022-11-08T06:49:24.087Z,21.4
2022-11-08T06:50:28.283Z,21.41
2022-11-08T06:51:32.568Z,21.42
2022-11-08T06:52:36.839Z,21.42
2022-11-08T06:53:41.116Z,21.42
2022-11-08T06:54:45.415Z,21.42
2022-11-08T06:55:49.670Z,21.42
2022-11-08T06:56:53.888Z,21.45
2022-11-08T06:57:58.281Z,21.43
2022-11-08T06:59:02.571Z,21.41
2022-11-08T07:00:06.799Z,21.43
2022-11-08T07:01:11.634Z,21.47
2022-11-08T07:02:16.271Z,21.51
2022-11-08T07:03:21.087Z,21.51
2022-11-08T07:04:25.508Z,21.53
2022-11-08T07:05:29.773Z,21.51
2022-11-08T07:06:34.704Z,21.52
2022-11-08T07:07:38.927Z,21.52
2022-11-08T07:08:43.168Z,21.54
2022-11-08T07:09:47.514Z,21.53
2022-11-08T07:10:51.799Z,21.54
2022-11-08T07:11:56.145Z,21.53
2022-11-08T07:13:00.451Z,21.55
2022-11-08T07:14:04.690Z,21.54
2022-11-08T07:15:08.937Z,21.53
2022-11-08T07:16:13.186Z,21.53
2022-11-08T07:17:17.464Z,21.53
2022-11-08T07:18:21.768Z,21.51
2022-11-08T07:19:26.211Z,21.51
2022-11-08T07:20:30.443Z,21.5
2022-11-08T07:21:34.775Z,21.51
2022-11-08T07:22:38.992Z,21.49
2022-11-08T07:23:43.215Z,21.49
2022-11-08T07:24:47.508Z,21.48
2022-11-08T07:25:51.848Z,21.5
2022-11-08T07:26:56.126Z,21.51
2022-11-08T07:28:00.403Z,21.47
2022-11-08T07:29:04.680Z,21.48
2022-11-08T07:30:09.057Z,21.49
2022-11-08T07:31:13.347Z,21.47
2022-11-08T07:32:17.631Z,21.49
2022-11-08T07:33:22.278Z,21.48
2022-11-08T07:34:26.882Z,21.48
2022-11-08T07:35:31.222Z,21.47
2022-11-08T07:36:36.845Z,21.48
2022-11-08T07:37:41.105Z,21.45
2022-11-08T07:38:45.357Z,21.44
2022-11-08T07:39:49.575Z,21.44
2022-11-08T07:40:53.832Z,21.44
2022-11-08T07:41:59.182Z,21.44
2022-11-08T07:43:12.484Z,21.41
2022-11-08T07:44:17.140Z,21.43
2022-11-08T07:45:21.369Z,21.44
2022-11-08T07:46:25.660Z,21.42
2022-11-08T07:47:29.904Z,21.41
2022-11-08T07:48:34.163Z,21.41
2022-11-08T07:49:38.403Z,21.41
2022-11-08T07:50:42.874Z,21.42
2022-11-08T07:51:47.368Z,21.39
2022-11-08T07:52:51.604Z,21.41
2022-11-08T07:53:59.128Z,21.38
2022-11-08T07:55:06.708Z,21.35
2022-11-08T07:56:10.961Z,21.35
2022-11-08T07:57:15.242Z,21.36
2022-11-08T07:58:19.482Z,21.37
2022-11-08T07:59:23.717Z,21.37
2022-11-08T08:00:27.963Z,21.38
2022-11-08T08:01:32.255Z,21.4
2022-11-08T08:02:36.739Z,21.35
2022-11-08T08:03:41.126Z,21.35
2022-11-08T08:04:45.366Z,21.36
2022-11-08T08:05:49.629Z,21.35
2022-11-08T08:06:55.956Z,21.37
2022-11-08T08:08:00.210Z,21.35
2022-11-08T08:09:04.507Z,21.3
2022-11-08T08:10:08.813Z,21.36
2022-11-08T08:11:13.060Z,21.37
2022-11-08T08:12:17.417Z,21.37
2022-11-08T08:13:21.783Z,21.39
2022-11-08T08:14:26.050Z,21.44
2022-11-08T08:15:30.256Z,21.47
2022-11-08T08:16:34.503Z,21.47
2022-11-08T08:17:38.796Z,21.48
2022-11-08T08:18:43.079Z,21.5
2022-11-08T08:19:47.324Z,21.5
2022-11-08T08:20:51.584Z,21.52
2022-11-08T08:21:55.843Z,21.52
2022-11-08T08:23:00.069Z,21.52
2022-11-08T08:24:04.322Z,21.51
2022-11-08T08:25:08.678Z,21.52
2022-11-08T08:26:13.295Z,21.52
2022-11-08T08:27:17.627Z,21.53
2022-11-08T08:28:22.284Z,21.52
2022-11-08T08:29:26.668Z,21.52
2022-11-08T08:30:31.035Z,21.52
2022-11-08T08:31:35.568Z,21.52
2022-11-08T08:32:39.935Z,21.54
2022-11-08T08:33:44.360Z,21.56
2022-11-08T08:34:48.811Z,21.54
2022-11-08T08:35:53.196Z,21.57
2022-11-08T08:36:57.466Z,21.52
2022-11-08T08:38:02.693Z,21.53
2022-11-08T08:39:07.026Z,21.53
2022-11-08T08:40:11.260Z,21.54
2022-11-08T08:41:15.474Z,21.53
2022-11-08T08:42:19.696Z,21.52
2022-11-08T08:43:23.937Z,21.51
2022-11-08T08:44:28.203Z,21.52
2022-11-08T08:45:32.510Z,21.53
2022-11-08T08:46:36.781Z,21.53
2022-11-08T08:47:41.016Z,21.53
2022-11-08T08:48:45.259Z,21.53
2022-11-08T08:49:49.510Z,21.53
2022-11-08T08:50:53.748Z,21.52
2022-11-08T08:51:57.986Z,21.49
2022-11-08T08:53:02.254Z,21.49
2022-11-08T08:54:06.488Z,21.46
2022-11-08T08:55:10.760Z,21.45
2022-11-08T08:56:14.998Z,21.43
2022-11-08T08:57:19.212Z,21.37
2022-11-08T08:58:23.484Z,21.37
2022-11-08T09:02:01.930Z,21.38
2022-11-08T09:03:06.162Z,21.35
2022-11-08T09:04:10.375Z,21.34
2022-11-08T09:05:14.624Z,21.36
2022-11-08T09:06:18.890Z,21.33
2022-11-08T09:07:24.588Z,21.34
2022-11-08T09:08:28.881Z,21.33
2022-11-08T09:09:33.116Z,21.31
2022-11-08T09:10:37.415Z,21.3
2022-11-08T09:11:41.686Z,21.32
2022-11-08T09:12:45.946Z,21.32
2022-11-08T09:13:50.279Z,21.28
2022-11-08T09:14:54.519Z,21.29
2022-11-08T09:17:03.408Z,21.28
2022-11-08T09:18:07.676Z,21.28
2022-11-08T09:19:12.163Z,21.28
2022-11-08T09:20:16.403Z,21.3
2022-11-08T09:21:20.651Z,21.29
2022-11-08T09:22:25.122Z,21.26
2022-11-08T09:23:29.348Z,21.26
2022-11-08T09:24:33.681Z,21.25
2022-11-08T09:25:37.939Z,21.26
2022-11-08T09:26:42.145Z,21.26
2022-11-08T09:27:46.412Z,21.25
2022-11-08T09:28:50.671Z,21.28
2022-11-08T09:29:54.959Z,21.27
2022-11-08T09:30:59.215Z,21.21
2022-11-08T09:32:03.497Z,21.2
2022-11-08T09:33:07.896Z,21.27
2022-11-08T09:34:13.370Z,21.22
2022-11-08T09:35:24.266Z,21.25
2022-11-08T09:36:28.493Z,21.25
2022-11-08T09:37:32.761Z,21.21
2022-11-08T09:38:37.005Z,21.2
2022-11-08T09:39:41.302Z,21.2
2022-11-08T09:40:45.617Z,21.18
2022-11-08T09:41:51.352Z,21.19
2022-11-08T09:42:59.059Z,21.2
2022-11-08T09:44:04.359Z,21.2
2022-11-08T09:45:08.589Z,21.21
2022-11-08T09:46:12.853Z,21.21
2022-11-08T09:47:17.108Z,21.21
2022-11-08T09:48:21.352Z,21.21
2022-11-08T09:49:25.580Z,21.23
2022-11-08T09:50:29.837Z,21.26
2022-11-08T09:51:34.083Z,21.24
2022-11-08T09:52:38.363Z,21.25
2022-11-08T09:53:42.625Z,21.26
2022-11-08T09:54:46.884Z,21.25
2022-11-08T09:55:51.146Z,21.25
2022-11-08T09:56:55.410Z,21.26
2022-11-08T09:57:59.647Z,21.26
2022-11-08T09:59:06.136Z,21.25
2022-11-08T10:00:10.370Z,21.24
2022-11-08T10:01:14.673Z,21.24
2022-11-08T10:02:19.161Z,21.25
2022-11-08T10:03:23.618Z,21.28
2022-11-08T10:04:27.937Z,21.24
2022-11-08T10:05:32.168Z,21.25
2022-11-08T10:06:36.524Z,21.24
2022-11-08T10:07:41.124Z,21.26
2022-11-08T10:08:45.364Z,21.25
2022-11-08T10:09:49.604Z,21.25
2022-11-08T10:10:53.900Z,21.26
2022-11-08T10:11:58.188Z,21.24
2022-11-08T10:13:02.409Z,21.25
2022-11-08T10:14:06.647Z,21.25
2022-11-08T10:15:10.907Z,21.23
2022-11-08T10:16:15.146Z,21.22
2022-11-08T10:17:19.411Z,21.21
2022-11-08T10:18:23.766Z,21.21
2022-11-08T10:19:28.029Z,21.23
2022-11-08T10:20:32.304Z,21.21
2022-11-08T10:21:36.497Z,21.25
2022-11-08T10:22:40.737Z,21.24
2022-11-08T10:23:44.984Z,21.25
2022-11-08T10:24:49.260Z,21.21
2022-11-08T10:25:53.607Z,21.22
2022-11-08T10:26:57.892Z,21.2
2022-11-08T10:28:02.171Z,21.24
2022-11-08T10:29:06.427Z,21.2
2022-11-08T10:30:10.649Z,21.2
2022-11-08T10:31:14.900Z,21.21
2022-11-08T10:32:19.128Z,21.24
2022-11-08T10:33:23.387Z,21.21
2022-11-08T10:34:27.658Z,21.22
2022-11-08T10:35:31.931Z,21.21
2022-11-08T10:36:36.273Z,21.23
2022-11-08T10:37:40.546Z,21.25
2022-11-08T10:38:44.785Z,21.22
2022-11-08T10:39:49.081Z,21.26
2022-11-08T10:40:53.322Z,21.24
2022-11-08T10:41:57.552Z,21.25
2022-11-08T10:43:05.540Z,21.2
2022-11-08T10:44:12.953Z,21.21
2022-11-08T10:45:17.199Z,21.24
2022-11-08T10:46:21.441Z,21.2
2022-11-08T10:47:25.663Z,21.22
2022-11-08T10:48:29.899Z,21.22
2022-11-08T10:49:34.167Z,21.22
2022-11-08T10:50:38.389Z,21.2
2022-11-08T10:51:42.621Z,21.18
2022-11-08T10:52:46.846Z,21.18
2022-11-08T10:53:51.103Z,21.17
2022-11-08T10:54:55.544Z,21.17
2022-11-08T10:55:59.855Z,21.17
2022-11-08T10:57:04.169Z,21.16
2022-11-08T10:58:08.433Z,21.17
2022-11-08T10:59:12.654Z,21.18
2022-11-08T11:00:16.937Z,21.17
2022-11-08T11:01:21.321Z,21.19
2022-11-08T11:02:25.830Z,21.21
2022-11-08T11:03:30.293Z,21.21
2022-11-08T11:04:34.537Z,21.21
2022-11-08T11:05:38.791Z,21.23
2022-11-08T11:06:43.081Z,21.23
2022-11-08T11:07:47.435Z,21.22
2022-11-08T11:08:51.779Z,21.22
2022-11-08T11:09:56.029Z,21.22
2022-11-08T11:11:00.339Z,21.21
2022-11-08T11:12:04.570Z,21.21
2022-11-08T11:13:08.830Z,21.2
2022-11-08T11:14:14.617Z,21.2
2022-11-08T11:15:25.758Z,21.21
2022-11-08T11:16:30.012Z,21.22
2022-11-08T11:17:35.740Z,21.21
2022-11-08T11:18:43.687Z,21.2
2022-11-08T11:19:47.936Z,21.18
2022-11-08T11:20:52.322Z,21.19
2022-11-08T11:21:56.630Z,21.22
2022-11-08T11:23:00.864Z,21.19
2022-11-08T11:24:05.134Z,21.2
2022-11-08T11:25:09.387Z,21.18
2022-11-08T11:26:13.701Z,21.18
2022-11-08T11:27:17.943Z,21.18
2022-11-08T11:28:22.194Z,21.17
2022-11-08T11:29:26.463Z,21.15
2022-11-08T11:30:30.713Z,21.2
2022-11-08T11:31:35.135Z,21.18
2022-11-08T11:32:39.384Z,21.19
2022-11-08T11:33:43.605Z,21.18
2022-11-08T11:34:47.832Z,21.16
2022-11-08T11:35:52.070Z,21.17
2022-11-08T11:36:56.340Z,21.17
2022-11-08T11:38:00.624Z,21.15
2022-11-08T11:39:04.862Z,21.16
2022-11-08T11:40:09.143Z,21.16
2022-11-08T11:41:13.407Z,21.18
2022-11-08T11:42:39.610Z,21.2
2022-11-08T11:43:50.296Z,21.19
2022-11-08T11:44:54.582Z,21.17
2022-11-08T11:45:58.836Z,21.16
2022-11-08T11:47:03.136Z,21.14
2022-11-08T11:48:07.396Z,21.13
2022-11-08T11:49:11.651Z,21.16
2022-11-08T11:50:16.064Z,21.15
2022-11-08T11:51:20.333Z,21.14
2022-11-08T11:52:24.704Z,21.14
2022-11-08T11:53:28.928Z,21.13
2022-11-08T11:54:33.206Z,21.12
2022-11-08T11:55:37.439Z,21.14
2022-11-08T11:56:41.702Z,21.15
2022-11-08T11:57:45.957Z,21.16
2022-11-08T11:58:50.213Z,21.15
2022-11-08T11:59:54.445Z,21.2
2022-11-08T12:00:58.671Z,21.2
2022-11-08T12:02:03.046Z,21.2
2022-11-08T12:03:07.510Z,21.22
2022-11-08T12:04:11.743Z,21.26
2022-11-08T12:05:15.997Z,21.27
2022-11-08T12:06:20.378Z,21.28
2022-11-08T12:07:24.814Z,21.28
2022-11-08T12:08:29.358Z,21.29
2022-11-08T12:09:33.599Z,21.3
2022-11-08T12:10:37.810Z,21.3
2022-11-08T12:11:42.043Z,21.27
2022-11-08T12:12:46.291Z,21.28
2022-11-08T12:13:54.239Z,21.26
2022-11-08T12:14:58.757Z,21.3
2022-11-08T12:16:03.008Z,21.31
2022-11-08T12:17:07.272Z,21.33
2022-11-08T12:18:12.013Z,21.32
2022-11-08T12:19:44.329Z,21.27
2022-11-08T12:20:48.569Z,21.28
2022-11-08T12:21:52.872Z,21.26
2022-11-08T12:22:57.137Z,21.23
2022-11-08T12:24:01.380Z,21.21
2022-11-08T12:25:05.649Z,21.2
2022-11-08T12:26:09.952Z,21.19
2022-11-08T12:27:14.177Z,21.22
2022-11-08T12:28:18.700Z,21.28
2022-11-08T12:29:23.803Z,21.23
2022-11-08T12:30:29.119Z,21.2
2022-11-08T12:31:33.384Z,21.21
2022-11-08T12:32:37.654Z,21.19
2022-11-08T12:33:41.891Z,21.19
2022-11-08T12:34:46.126Z,21.19
2022-11-08T12:35:50.367Z,21.19
2022-11-08T12:36:54.675Z,21.18
2022-11-08T12:37:58.926Z,21.21
2022-11-08T12:39:03.170Z,21.22
2022-11-08T12:40:07.412Z,21.25
2022-11-08T12:41:11.629Z,21.26
2022-11-08T12:42:15.921Z,21.3
2022-11-08T12:43:20.154Z,21.29
2022-11-08T12:44:24.412Z,21.28
2022-11-08T12:45:28.663Z,21.29
2022-11-08T12:46:32.926Z,21.31
2022-11-08T12:47:37.194Z,21.32
2022-11-08T12:48:41.420Z,21.31
2022-11-08T12:49:45.634Z,21.31
2022-11-08T12:50:49.859Z,21.32
2022-11-08T12:51:54.109Z,21.33
2022-11-08T12:52:58.374Z,21.33
2022-11-08T12:54:02.676Z,21.34
2022-11-08T12:55:07.991Z,21.34
2022-11-08T12:56:12.338Z,21.35
2022-11-08T12:57:16.583Z,21.35
2022-11-08T12:58:20.927Z,21.35
2022-11-08T12:59:25.222Z,21.36
2022-11-08T13:00:29.455Z,21.32
2022-11-08T13:01:33.716Z,21.31
2022-11-08T13:02:38.164Z,21.27
2022-11-08T13:03:42.387Z,21.26
2022-11-08T13:04:46.680Z,21.25
2022-11-08T13:05:50.915Z,21.26
2022-11-08T13:06:55.218Z,21.23
2022-11-08T13:07:59.736Z,21.25
2022-11-08T13:09:03.988Z,21.28
2022-11-08T13:10:12.319Z,21.28
2022-11-08T13:11:16.877Z,21.27
2022-11-08T13:12:21.168Z,21.26
2022-11-08T13:13:25.404Z,21.26
2022-11-08T13:14:29.692Z,21.27
2022-11-08T13:15:33.937Z,21.28
2022-11-08T13:16:38.456Z,21.27
2022-11-08T13:17:42.707Z,21.25
2022-11-08T13:18:46.977Z,21.23
2022-11-08T13:19:51.242Z,21.22
2022-11-08T13:20:55.510Z,21.22
2022-11-08T13:21:59.741Z,21.22
2022-11-08T13:23:04.018Z,21.2
2022-11-08T13:24:30.721Z,21.19
2022-11-08T13:25:48.342Z,21.18
2022-11-08T13:26:55.825Z,21.14
2022-11-08T13:28:02.960Z,21.15
2022-11-08T13:29:07.182Z,21.16
2022-11-08T13:30:11.411Z,21.15
2022-11-08T13:31:15.635Z,21.15
2022-11-08T13:32:19.853Z,21.15
2022-11-08T13:33:24.108Z,21.13
2022-11-08T13:34:28.345Z,21.14
2022-11-08T13:35:32.578Z,21.15
2022-11-08T13:36:36.809Z,21.15
2022-11-08T13:37:41.055Z,21.14
2022-11-08T13:38:45.361Z,21.14
2022-11-08T13:39:49.564Z,21.15
2022-11-08T13:40:56.107Z,21.15
2022-11-08T13:42:00.562Z,21.15
2022-11-08T13:43:04.857Z,21.12
2022-11-08T13:44:09.109Z,21.11
2022-11-08T13:45:13.349Z,21.12
2022-11-08T13:46:17.612Z,21.12
2022-11-08T13:47:21.833Z,21.13
2022-11-08T13:48:26.442Z,21.13
2022-11-08T13:49:31.838Z,21.12
2022-11-08T13:50:36.081Z,21.11
2022-11-08T13:51:40.374Z,21.13
2022-11-08T13:52:44.638Z,21.08
2022-11-08T13:53:48.861Z,21.11
2022-11-08T13:54:53.116Z,21.12
2022-11-08T13:55:57.386Z,21.13
2022-11-08T13:57:01.613Z,21.11
2022-11-08T13:58:05.892Z,21.14